sensor_id;sensor_type;location;lat;lon;timestamp;P1;durP1;ratioP1;P2;durP2;ratioP2
14778;SDS011;7481;53.750;10.570;2023-04-24T00:02:41;3.50;;;3.20;;
14778;SDS011;7481;53.750;10.570;2023-04-24T00:05:33;4.40;;;3.40;;
14778;SDS011;7481;53.750;10.570;2023-04-24T00:08:20;6.30;;;3.93;;
14778;SDS011;7481;53.750;10.570;2023-04-24T00:11:09;6.93;;;3.70;;
14778;SDS011;7481;53.750;10.570;2023-04-24T00:13:56;7.03;;;4.10;;
14778;SDS011;7481;53.750;10.570;2023-04-24T00:16:43;4.27;;;3.87;;
14778;SDS011;7481;53.750;10.570;2023-04-24T00:19:31;4.87;;;3.80;;
14778;SDS011;7481;53.750;10.570;2023-04-24T00:22:19;5.73;;;3.80;;
14778;SDS011;7481;53.750;10.570;2023-04-24T00:25:07;5.23;;;4.33;;
14778;SDS011;7481;53.750;10.570;2023-04-24T00:27:54;6.23;;;4.63;;
14778;SDS011;7481;53.750;10.570;2023-04-24T00:30:42;8.10;;;4.50;;
14778;SDS011;7481;53.750;10.570;2023-04-24T00:33:29;4.70;;;4.13;;
14778;SDS011;7481;53.750;10.570;2023-04-24T00:36:16;5.43;;;4.40;;
14778;SDS011;7481;53.750;10.570;2023-04-24T00:39:06;6.30;;;4.50;;
14778;SDS011;7481;53.750;10.570;2023-04-24T00:41:55;5.03;;;4.30;;
14778;SDS011;7481;53.750;10.570;2023-04-24T00:44:43;5.47;;;4.70;;
14778;SDS011;7481;53.750;10.570;2023-04-24T00:47:30;5.47;;;4.30;;
14778;SDS011;7481;53.750;10.570;2023-04-24T00:50:20;5.80;;;4.20;;
14778;SDS011;7481;53.750;10.570;2023-04-24T00:53:08;4.60;;;4.13;;
14778;SDS011;7481;53.750;10.570;2023-04-24T00:55:55;5.07;;;4.53;;
14778;SDS011;7481;53.750;10.570;2023-04-24T00:58:43;6.10;;;4.50;;
14778;SDS011;7481;53.750;10.570;2023-04-24T01:01:31;4.90;;;4.43;;
14778;SDS011;7481;53.750;10.570;2023-04-24T01:04:19;4.87;;;4.23;;
14778;SDS011;7481;53.750;10.570;2023-04-24T01:07:06;4.43;;;3.97;;
14778;SDS011;7481;53.750;10.570;2023-04-24T01:09:57;6.83;;;4.13;;
14778;SDS011;7481;53.750;10.570;2023-04-24T01:12:44;5.97;;;4.07;;
14778;SDS011;7481;53.750;10.570;2023-04-24T01:15:31;5.80;;;4.40;;
14778;SDS011;7481;53.750;10.570;2023-04-24T01:18:19;4.80;;;4.30;;
14778;SDS011;7481;53.750;10.570;2023-04-24T01:21:08;4.90;;;4.40;;
14778;SDS011;7481;53.750;10.570;2023-04-24T01:23:55;4.93;;;4.07;;
14778;SDS011;7481;53.750;10.570;2023-04-24T01:26:43;5.97;;;5.03;;
14778;SDS011;7481;53.750;10.570;2023-04-24T01:29:30;4.97;;;4.33;;
14778;SDS011;7481;53.750;10.570;2023-04-24T01:32:17;6.83;;;5.40;;
14778;SDS011;7481;53.750;10.570;2023-04-24T01:35:05;6.37;;;5.07;;
14778;SDS011;7481;53.750;10.570;2023-04-24T01:37:53;5.00;;;4.50;;
14778;SDS011;7481;53.750;10.570;2023-04-24T01:40:40;5.40;;;4.40;;
14778;SDS011;7481;53.750;10.570;2023-04-24T01:43:28;5.03;;;4.23;;
14778;SDS011;7481;53.750;10.570;2023-04-24T01:46:16;6.40;;;5.10;;
14778;SDS011;7481;53.750;10.570;2023-04-24T01:49:03;5.27;;;4.77;;
14778;SDS011;7481;53.750;10.570;2023-04-24T01:51:51;5.27;;;4.77;;
14778;SDS011;7481;53.750;10.570;2023-04-24T01:54:38;5.73;;;5.00;;
14778;SDS011;7481;53.750;10.570;2023-04-24T01:57:26;6.73;;;5.27;;
14778;SDS011;7481;53.750;10.570;2023-04-24T02:00:13;6.73;;;5.17;;
14778;SDS011;7481;53.750;10.570;2023-04-24T02:03:01;5.97;;;5.17;;
14778;SDS011;7481;53.750;10.570;2023-04-24T02:05:49;8.07;;;6.30;;
14778;SDS011;7481;53.750;10.570;2023-04-24T02:08:36;11.47;;;7.57;;
14778;SDS011;7481;53.750;10.570;2023-04-24T02:11:24;6.50;;;5.43;;
14778;SDS011;7481;53.750;10.570;2023-04-24T02:14:11;6.27;;;5.60;;
14778;SDS011;7481;53.750;10.570;2023-04-24T02:16:59;6.00;;;5.00;;
14778;SDS011;7481;53.750;10.570;2023-04-24T02:19:47;8.27;;;5.17;;
14778;SDS011;7481;53.750;10.570;2023-04-24T02:22:34;5.60;;;5.00;;
14778;SDS011;7481;53.750;10.570;2023-04-24T02:25:21;6.27;;;4.83;;
14778;SDS011;7481;53.750;10.570;2023-04-24T02:28:09;6.33;;;4.80;;
14778;SDS011;7481;53.750;10.570;2023-04-24T02:30:56;5.37;;;4.87;;
14778;SDS011;7481;53.750;10.570;2023-04-24T02:33:44;5.13;;;4.60;;
14778;SDS011;7481;53.750;10.570;2023-04-24T02:36:32;6.23;;;4.70;;
14778;SDS011;7481;53.750;10.570;2023-04-24T02:39:19;6.50;;;5.17;;
14778;SDS011;7481;53.750;10.570;2023-04-24T02:42:07;6.60;;;4.90;;
14778;SDS011;7481;53.750;10.570;2023-04-24T02:44:54;5.93;;;4.67;;
14778;SDS011;7481;53.750;10.570;2023-04-24T02:47:42;5.10;;;4.60;;
14778;SDS011;7481;53.750;10.570;2023-04-24T02:50:29;5.47;;;4.37;;
14778;SDS011;7481;53.750;10.570;2023-04-24T02:53:16;5.00;;;4.50;;
14778;SDS011;7481;53.750;10.570;2023-04-24T02:56:04;5.93;;;5.10;;
14778;SDS011;7481;53.750;10.570;2023-04-24T02:58:51;5.27;;;4.53;;
14778;SDS011;7481;53.750;10.570;2023-04-24T03:01:39;6.53;;;4.57;;
14778;SDS011;7481;53.750;10.570;2023-04-24T03:04:26;5.43;;;4.70;;
14778;SDS011;7481;53.750;10.570;2023-04-24T03:07:14;5.30;;;4.47;;
14778;SDS011;7481;53.750;10.570;2023-04-24T03:10:02;6.07;;;4.70;;
14778;SDS011;7481;53.750;10.570;2023-04-24T03:12:50;6.63;;;4.57;;
14778;SDS011;7481;53.750;10.570;2023-04-24T03:15:37;6.47;;;5.17;;
14778;SDS011;7481;53.750;10.570;2023-04-24T03:18:24;15.20;;;8.80;;
14778;SDS011;7481;53.750;10.570;2023-04-24T03:21:12;41.80;;;19.47;;
14778;SDS011;7481;53.750;10.570;2023-04-24T03:23:59;42.10;;;20.43;;
14778;SDS011;7481;53.750;10.570;2023-04-24T03:26:47;33.43;;;18.00;;
14778;SDS011;7481;53.750;10.570;2023-04-24T03:29:34;25.47;;;14.63;;
14778;SDS011;7481;53.750;10.570;2023-04-24T03:32:22;18.20;;;11.50;;
14778;SDS011;7481;53.750;10.570;2023-04-24T03:35:10;12.43;;;9.37;;
14778;SDS011;7481;53.750;10.570;2023-04-24T03:37:58;9.07;;;7.00;;
14778;SDS011;7481;53.750;10.570;2023-04-24T03:40:45;13.37;;;10.03;;
14778;SDS011;7481;53.750;10.570;2023-04-24T03:43:32;4.50;;;3.93;;
14778;SDS011;7481;53.750;10.570;2023-04-24T03:46:21;6.53;;;5.70;;
14778;SDS011;7481;53.750;10.570;2023-04-24T03:49:08;3.73;;;3.30;;
14778;SDS011;7481;53.750;10.570;2023-04-24T03:51:55;4.90;;;3.37;;
14778;SDS011;7481;53.750;10.570;2023-04-24T03:54:43;5.90;;;4.43;;
14778;SDS011;7481;53.750;10.570;2023-04-24T03:57:30;5.23;;;4.67;;
14778;SDS011;7481;53.750;10.570;2023-04-24T04:00:17;8.23;;;5.43;;
14778;SDS011;7481;53.750;10.570;2023-04-24T04:03:06;5.93;;;4.70;;
14778;SDS011;7481;53.750;10.570;2023-04-24T04:05:53;4.80;;;2.73;;
14778;SDS011;7481;53.750;10.570;2023-04-24T04:08:41;4.57;;;4.07;;
14778;SDS011;7481;53.750;10.570;2023-04-24T04:11:28;6.80;;;6.10;;
14778;SDS011;7481;53.750;10.570;2023-04-24T04:14:16;5.27;;;4.77;;
14778;SDS011;7481;53.750;10.570;2023-04-24T04:17:04;4.80;;;3.10;;
14778;SDS011;7481;53.750;10.570;2023-04-24T04:19:51;5.07;;;4.23;;
14778;SDS011;7481;53.750;10.570;2023-04-24T04:22:39;4.63;;;2.83;;
14778;SDS011;7481;53.750;10.570;2023-04-24T04:25:30;3.30;;;2.80;;
14778;SDS011;7481;53.750;10.570;2023-04-24T04:28:17;3.20;;;2.80;;
14778;SDS011;7481;53.750;10.570;2023-04-24T04:31:06;3.80;;;3.10;;
14778;SDS011;7481;53.750;10.570;2023-04-24T04:33:54;4.87;;;3.20;;
14778;SDS011;7481;53.750;10.570;2023-04-24T04:36:41;2.97;;;2.67;;
14778;SDS011;7481;53.750;10.570;2023-04-24T04:39:29;4.57;;;2.80;;
14778;SDS011;7481;53.750;10.570;2023-04-24T04:42:17;4.97;;;4.43;;
14778;SDS011;7481;53.750;10.570;2023-04-24T04:45:06;2.70;;;2.33;;
14778;SDS011;7481;53.750;10.570;2023-04-24T04:47:55;3.17;;;2.70;;
14778;SDS011;7481;53.750;10.570;2023-04-24T04:50:43;4.60;;;4.00;;
14778;SDS011;7481;53.750;10.570;2023-04-24T04:53:31;12.37;;;7.60;;
14778;SDS011;7481;53.750;10.570;2023-04-24T04:56:18;6.23;;;4.13;;
14778;SDS011;7481;53.750;10.570;2023-04-24T04:59:05;9.57;;;6.00;;
14778;SDS011;7481;53.750;10.570;2023-04-24T05:01:53;5.40;;;3.40;;
14778;SDS011;7481;53.750;10.570;2023-04-24T05:04:40;5.20;;;2.53;;
14778;SDS011;7481;53.750;10.570;2023-04-24T05:07:28;2.17;;;1.97;;
14778;SDS011;7481;53.750;10.570;2023-04-24T05:10:16;2.40;;;2.00;;
14778;SDS011;7481;53.750;10.570;2023-04-24T05:13:03;2.83;;;2.23;;
14778;SDS011;7481;53.750;10.570;2023-04-24T05:15:51;18.73;;;9.00;;
14778;SDS011;7481;53.750;10.570;2023-04-24T05:18:38;11.40;;;5.77;;
14778;SDS011;7481;53.750;10.570;2023-04-24T05:21:25;2.27;;;2.07;;
14778;SDS011;7481;53.750;10.570;2023-04-24T05:24:13;5.57;;;1.97;;
14778;SDS011;7481;53.750;10.570;2023-04-24T05:27:00;3.40;;;2.60;;
14778;SDS011;7481;53.750;10.570;2023-04-24T05:29:48;2.60;;;2.30;;
14778;SDS011;7481;53.750;10.570;2023-04-24T05:32:36;2.83;;;2.27;;
14778;SDS011;7481;53.750;10.570;2023-04-24T05:35:23;2.30;;;2.10;;
14778;SDS011;7481;53.750;10.570;2023-04-24T05:38:11;2.30;;;2.10;;
14778;SDS011;7481;53.750;10.570;2023-04-24T05:40:59;2.53;;;2.10;;
14778;SDS011;7481;53.750;10.570;2023-04-24T05:43:47;2.27;;;1.90;;
14778;SDS011;7481;53.750;10.570;2023-04-24T05:46:34;2.60;;;2.20;;
14778;SDS011;7481;53.750;10.570;2023-04-24T05:49:22;2.60;;;2.40;;
14778;SDS011;7481;53.750;10.570;2023-04-24T05:52:09;2.10;;;1.90;;
14778;SDS011;7481;53.750;10.570;2023-04-24T05:54:57;1.80;;;1.70;;
14778;SDS011;7481;53.750;10.570;2023-04-24T05:57:44;1.93;;;1.77;;
14778;SDS011;7481;53.750;10.570;2023-04-24T06:00:32;2.73;;;1.90;;
14778;SDS011;7481;53.750;10.570;2023-04-24T06:03:19;2.07;;;1.80;;
14778;SDS011;7481;53.750;10.570;2023-04-24T06:06:08;2.80;;;1.53;;
14778;SDS011;7481;53.750;10.570;2023-04-24T06:08:55;1.60;;;1.50;;
14778;SDS011;7481;53.750;10.570;2023-04-24T06:11:43;1.70;;;1.60;;
14778;SDS011;7481;53.750;10.570;2023-04-24T06:14:30;1.50;;;1.30;;
14778;SDS011;7481;53.750;10.570;2023-04-24T06:17:18;1.50;;;1.40;;
14778;SDS011;7481;53.750;10.570;2023-04-24T06:20:05;1.60;;;1.40;;
14778;SDS011;7481;53.750;10.570;2023-04-24T06:22:54;1.60;;;1.50;;
14778;SDS011;7481;53.750;10.570;2023-04-24T06:25:41;3.17;;;1.53;;
14778;SDS011;7481;53.750;10.570;2023-04-24T06:28:29;1.40;;;1.30;;
14778;SDS011;7481;53.750;10.570;2023-04-24T06:31:16;1.53;;;1.10;;
14778;SDS011;7481;53.750;10.570;2023-04-24T06:34:04;1.97;;;1.70;;
14778;SDS011;7481;53.750;10.570;2023-04-24T06:36:51;2.80;;;1.57;;
14778;SDS011;7481;53.750;10.570;2023-04-24T06:39:39;1.60;;;1.50;;
14778;SDS011;7481;53.750;10.570;2023-04-24T06:42:26;1.57;;;1.47;;
14778;SDS011;7481;53.750;10.570;2023-04-24T06:45:14;4.33;;;1.40;;
14778;SDS011;7481;53.750;10.570;2023-04-24T06:48:01;1.93;;;1.70;;
14778;SDS011;7481;53.750;10.570;2023-04-24T06:50:49;1.67;;;1.57;;
14778;SDS011;7481;53.750;10.570;2023-04-24T06:53:36;2.50;;;1.60;;
14778;SDS011;7481;53.750;10.570;2023-04-24T06:56:24;1.90;;;1.70;;
14778;SDS011;7481;53.750;10.570;2023-04-24T06:59:11;1.70;;;1.60;;
14778;SDS011;7481;53.750;10.570;2023-04-24T07:01:59;2.20;;;1.60;;
14778;SDS011;7481;53.750;10.570;2023-04-24T07:04:46;2.70;;;1.70;;
14778;SDS011;7481;53.750;10.570;2023-04-24T07:07:34;2.37;;;1.50;;
14778;SDS011;7481;53.750;10.570;2023-04-24T07:10:24;1.73;;;1.63;;
14778;SDS011;7481;53.750;10.570;2023-04-24T07:13:13;1.83;;;1.70;;
14778;SDS011;7481;53.750;10.570;2023-04-24T07:16:01;2.05;;;1.52;;
14778;SDS011;7481;53.750;10.570;2023-04-24T07:18:49;2.03;;;1.60;;
14778;SDS011;7481;53.750;10.570;2023-04-24T07:21:36;1.80;;;1.70;;
14778;SDS011;7481;53.750;10.570;2023-04-24T07:24:26;1.48;;;1.38;;
14778;SDS011;7481;53.750;10.570;2023-04-24T07:27:15;2.97;;;1.60;;
14778;SDS011;7481;53.750;10.570;2023-04-24T07:30:03;1.83;;;1.60;;
14778;SDS011;7481;53.750;10.570;2023-04-24T07:32:51;2.30;;;2.10;;
14778;SDS011;7481;53.750;10.570;2023-04-24T07:35:38;1.65;;;1.52;;
14778;SDS011;7481;53.750;10.570;2023-04-24T07:38:26;2.28;;;1.65;;
14778;SDS011;7481;53.750;10.570;2023-04-24T07:41:13;1.52;;;1.42;;
14778;SDS011;7481;53.750;10.570;2023-04-24T07:44:01;1.80;;;1.70;;
14778;SDS011;7481;53.750;10.570;2023-04-24T07:46:48;3.20;;;1.73;;
14778;SDS011;7481;53.750;10.570;2023-04-24T07:49:36;1.60;;;1.50;;
14778;SDS011;7481;53.750;10.570;2023-04-24T07:52:24;2.03;;;1.80;;
14778;SDS011;7481;53.750;10.570;2023-04-24T07:55:11;1.90;;;1.80;;
14778;SDS011;7481;53.750;10.570;2023-04-24T07:57:58;1.97;;;1.70;;
14778;SDS011;7481;53.750;10.570;2023-04-24T08:00:46;2.73;;;1.93;;
14778;SDS011;7481;53.750;10.570;2023-04-24T08:03:33;1.93;;;1.73;;
14778;SDS011;7481;53.750;10.570;2023-04-24T08:06:21;2.43;;;1.90;;
14778;SDS011;7481;53.750;10.570;2023-04-24T08:09:09;2.23;;;2.00;;
14778;SDS011;7481;53.750;10.570;2023-04-24T08:11:56;2.30;;;1.97;;
14778;SDS011;7481;53.750;10.570;2023-04-24T08:14:44;2.00;;;1.90;;
14778;SDS011;7481;53.750;10.570;2023-04-24T08:17:31;1.80;;;1.70;;
14778;SDS011;7481;53.750;10.570;2023-04-24T08:20:19;2.67;;;2.00;;
14778;SDS011;7481;53.750;10.570;2023-04-24T08:23:06;3.03;;;1.77;;
14778;SDS011;7481;53.750;10.570;2023-04-24T08:25:54;2.00;;;1.80;;
14778;SDS011;7481;53.750;10.570;2023-04-24T08:28:42;2.50;;;1.93;;
14778;SDS011;7481;53.750;10.570;2023-04-24T08:31:29;2.00;;;1.90;;
14778;SDS011;7481;53.750;10.570;2023-04-24T08:34:17;3.00;;;2.00;;
14778;SDS011;7481;53.750;10.570;2023-04-24T08:37:04;2.33;;;1.90;;
14778;SDS011;7481;53.750;10.570;2023-04-24T08:39:52;2.17;;;1.80;;
14778;SDS011;7481;53.750;10.570;2023-04-24T08:42:41;2.10;;;1.90;;
14778;SDS011;7481;53.750;10.570;2023-04-24T08:45:29;2.10;;;1.90;;
14778;SDS011;7481;53.750;10.570;2023-04-24T08:48:17;1.90;;;1.80;;
14778;SDS011;7481;53.750;10.570;2023-04-24T08:51:16;2.73;;;1.80;;
14778;SDS011;7481;53.750;10.570;2023-04-24T08:54:04;1.70;;;1.60;;
14778;SDS011;7481;53.750;10.570;2023-04-24T08:56:51;2.30;;;1.70;;
14778;SDS011;7481;53.750;10.570;2023-04-24T08:59:41;2.60;;;1.80;;
14778;SDS011;7481;53.750;10.570;2023-04-24T09:02:29;2.23;;;2.03;;
14778;SDS011;7481;53.750;10.570;2023-04-24T09:05:18;2.33;;;1.77;;
14778;SDS011;7481;53.750;10.570;2023-04-24T09:08:05;2.10;;;1.90;;
14778;SDS011;7481;53.750;10.570;2023-04-24T09:10:53;1.93;;;1.80;;
14778;SDS011;7481;53.750;10.570;2023-04-24T09:13:41;2.40;;;1.88;;
14778;SDS011;7481;53.750;10.570;2023-04-24T09:16:29;2.20;;;2.00;;
14778;SDS011;7481;53.750;10.570;2023-04-24T09:19:17;3.00;;;2.00;;
14778;SDS011;7481;53.750;10.570;2023-04-24T09:22:05;2.20;;;2.00;;
14778;SDS011;7481;53.750;10.570;2023-04-24T09:25:03;2.53;;;2.25;;
14778;SDS011;7481;53.750;10.570;2023-04-24T09:27:53;2.33;;;2.00;;
14778;SDS011;7481;53.750;10.570;2023-04-24T09:30:41;2.88;;;2.63;;
14778;SDS011;7481;53.750;10.570;2023-04-24T09:33:28;3.15;;;2.28;;
14778;SDS011;7481;53.750;10.570;2023-04-24T09:36:17;3.17;;;2.78;;
14778;SDS011;7481;53.750;10.570;2023-04-24T09:39:05;2.40;;;2.20;;
14778;SDS011;7481;53.750;10.570;2023-04-24T09:41:55;2.85;;;2.55;;
14778;SDS011;7481;53.750;10.570;2023-04-24T09:44:46;3.35;;;2.90;;
14778;SDS011;7481;53.750;10.570;2023-04-24T09:47:52;3.17;;;2.88;;
14778;SDS011;7481;53.750;10.570;2023-04-24T09:50:40;3.30;;;3.00;;
14778;SDS011;7481;53.750;10.570;2023-04-24T09:53:33;3.50;;;3.20;;
14778;SDS011;7481;53.750;10.570;2023-04-24T09:56:21;4.53;;;4.13;;
14778;SDS011;7481;53.750;10.570;2023-04-24T09:59:09;4.50;;;4.10;;
14778;SDS011;7481;53.750;10.570;2023-04-24T10:01:56;4.73;;;4.07;;
14778;SDS011;7481;53.750;10.570;2023-04-24T10:04:57;4.30;;;3.90;;
14778;SDS011;7481;53.750;10.570;2023-04-24T10:07:46;4.00;;;3.57;;
14778;SDS011;7481;53.750;10.570;2023-04-24T10:10:38;4.63;;;4.17;;
14778;SDS011;7481;53.750;10.570;2023-04-24T10:13:26;4.67;;;3.60;;
14778;SDS011;7481;53.750;10.570;2023-04-24T10:16:15;6.70;;;4.03;;
14778;SDS011;7481;53.750;10.570;2023-04-24T10:19:02;5.03;;;4.00;;
14778;SDS011;7481;53.750;10.570;2023-04-24T10:21:50;3.87;;;3.47;;
14778;SDS011;7481;53.750;10.570;2023-04-24T10:24:37;4.40;;;4.00;;
14778;SDS011;7481;53.750;10.570;2023-04-24T10:27:26;4.33;;;3.93;;
14778;SDS011;7481;53.750;10.570;2023-04-24T10:30:13;5.73;;;4.00;;
14778;SDS011;7481;53.750;10.570;2023-04-24T10:33:05;4.07;;;3.67;;
14778;SDS011;7481;53.750;10.570;2023-04-24T10:35:53;3.93;;;3.53;;
14778;SDS011;7481;53.750;10.570;2023-04-24T10:38:41;3.40;;;3.10;;
14778;SDS011;7481;53.750;10.570;2023-04-24T10:41:30;3.53;;;3.20;;
14778;SDS011;7481;53.750;10.570;2023-04-24T10:44:18;3.70;;;3.10;;
14778;SDS011;7481;53.750;10.570;2023-04-24T10:47:15;3.27;;;2.97;;
14778;SDS011;7481;53.750;10.570;2023-04-24T10:50:02;4.23;;;3.23;;
14778;SDS011;7481;53.750;10.570;2023-04-24T10:53:04;4.90;;;3.40;;
14778;SDS011;7481;53.750;10.570;2023-04-24T10:55:59;5.33;;;3.47;;
14778;SDS011;7481;53.750;10.570;2023-04-24T10:58:50;4.50;;;3.70;;
14778;SDS011;7481;53.750;10.570;2023-04-24T11:01:38;4.93;;;3.50;;
14778;SDS011;7481;53.750;10.570;2023-04-24T11:04:29;3.53;;;3.23;;
14778;SDS011;7481;53.750;10.570;2023-04-24T11:07:19;4.67;;;3.60;;
14778;SDS011;7481;53.750;10.570;2023-04-24T11:10:07;4.30;;;3.90;;
14778;SDS011;7481;53.750;10.570;2023-04-24T11:12:55;3.83;;;3.50;;
14778;SDS011;7481;53.750;10.570;2023-04-24T11:15:42;4.77;;;4.03;;
14778;SDS011;7481;53.750;10.570;2023-04-24T11:18:36;5.03;;;3.87;;
14778;SDS011;7481;53.750;10.570;2023-04-24T11:21:24;4.47;;;4.07;;
14778;SDS011;7481;53.750;10.570;2023-04-24T11:24:25;5.40;;;4.63;;
14778;SDS011;7481;53.750;10.570;2023-04-24T11:27:14;6.67;;;4.70;;
14778;SDS011;7481;53.750;10.570;2023-04-24T11:30:03;5.90;;;4.23;;
14778;SDS011;7481;53.750;10.570;2023-04-24T11:32:50;5.53;;;5.00;;
14778;SDS011;7481;53.750;10.570;2023-04-24T11:35:41;6.80;;;5.37;;
14778;SDS011;7481;53.750;10.570;2023-04-24T11:38:28;5.10;;;4.60;;
14778;SDS011;7481;53.750;10.570;2023-04-24T11:41:16;5.97;;;4.93;;
14778;SDS011;7481;53.750;10.570;2023-04-24T11:44:05;6.03;;;5.43;;
14778;SDS011;7481;53.750;10.570;2023-04-24T11:46:55;6.60;;;5.20;;
14778;SDS011;7481;53.750;10.570;2023-04-24T11:49:43;8.23;;;5.40;;
14778;SDS011;7481;53.750;10.570;2023-04-24T11:52:31;5.97;;;5.37;;
14778;SDS011;7481;53.750;10.570;2023-04-24T11:58:06;6.90;;;5.70;;
14778;SDS011;7481;53.750;10.570;2023-04-24T12:00:56;6.20;;;5.60;;
14778;SDS011;7481;53.750;10.570;2023-04-24T12:03:48;5.90;;;5.30;;
14778;SDS011;7481;53.750;10.570;2023-04-24T12:06:35;9.63;;;6.57;;
14778;SDS011;7481;53.750;10.570;2023-04-24T12:09:23;7.20;;;5.93;;
14778;SDS011;7481;53.750;10.570;2023-04-24T12:12:11;10.77;;;6.63;;
14778;SDS011;7481;53.750;10.570;2023-04-24T12:14:59;10.40;;;6.20;;
14778;SDS011;7481;53.750;10.570;2023-04-24T12:17:48;7.63;;;6.40;;
14778;SDS011;7481;53.750;10.570;2023-04-24T12:20:37;9.57;;;6.57;;
14778;SDS011;7481;53.750;10.570;2023-04-24T12:23:34;6.27;;;5.67;;
14778;SDS011;7481;53.750;10.570;2023-04-24T12:26:22;8.87;;;6.30;;
14778;SDS011;7481;53.750;10.570;2023-04-24T12:29:10;7.27;;;5.77;;
14778;SDS011;7481;53.750;10.570;2023-04-24T12:31:58;6.97;;;5.60;;
14778;SDS011;7481;53.750;10.570;2023-04-24T12:34:46;7.53;;;5.83;;
14778;SDS011;7481;53.750;10.570;2023-04-24T12:37:33;7.37;;;5.57;;
14778;SDS011;7481;53.750;10.570;2023-04-24T12:40:24;9.63;;;6.20;;
14778;SDS011;7481;53.750;10.570;2023-04-24T12:43:17;7.60;;;5.87;;
14778;SDS011;7481;53.750;10.570;2023-04-24T12:46:05;8.50;;;6.53;;
14778;SDS011;7481;53.750;10.570;2023-04-24T12:48:52;7.93;;;6.47;;
14778;SDS011;7481;53.750;10.570;2023-04-24T12:51:58;6.87;;;5.87;;
14778;SDS011;7481;53.750;10.570;2023-04-24T12:54:46;7.50;;;6.23;;
14778;SDS011;7481;53.750;10.570;2023-04-24T12:57:33;7.03;;;6.30;;
14778;SDS011;7481;53.750;10.570;2023-04-24T13:00:21;6.13;;;5.20;;
14778;SDS011;7481;53.750;10.570;2023-04-24T13:03:08;6.20;;;5.37;;
14778;SDS011;7481;53.750;10.570;2023-04-24T13:05:56;6.03;;;5.10;;
14778;SDS011;7481;53.750;10.570;2023-04-24T13:08:43;8.83;;;5.40;;
14778;SDS011;7481;53.750;10.570;2023-04-24T13:11:31;6.57;;;5.80;;
14778;SDS011;7481;53.750;10.570;2023-04-24T13:14:18;6.37;;;5.50;;
14778;SDS011;7481;53.750;10.570;2023-04-24T13:17:06;5.87;;;5.27;;
14778;SDS011;7481;53.750;10.570;2023-04-24T13:19:54;6.30;;;5.13;;
14778;SDS011;7481;53.750;10.570;2023-04-24T13:22:41;5.03;;;4.47;;
14778;SDS011;7481;53.750;10.570;2023-04-24T13:28:17;6.50;;;4.77;;
14778;SDS011;7481;53.750;10.570;2023-04-24T13:31:04;5.57;;;4.50;;
14778;SDS011;7481;53.750;10.570;2023-04-24T13:33:52;5.73;;;4.50;;
14778;SDS011;7481;53.750;10.570;2023-04-24T13:36:40;5.47;;;4.47;;
14778;SDS011;7481;53.750;10.570;2023-04-24T13:39:27;4.83;;;4.20;;
14778;SDS011;7481;53.750;10.570;2023-04-24T13:42:14;6.43;;;4.10;;
14778;SDS011;7481;53.750;10.570;2023-04-24T13:45:02;6.47;;;4.30;;
14778;SDS011;7481;53.750;10.570;2023-04-24T13:48:09;5.23;;;4.03;;
14778;SDS011;7481;53.750;10.570;2023-04-24T13:50:58;5.27;;;4.63;;
14778;SDS011;7481;53.750;10.570;2023-04-24T13:53:46;5.60;;;4.83;;
14778;SDS011;7481;53.750;10.570;2023-04-24T13:56:33;6.67;;;4.70;;
14778;SDS011;7481;53.750;10.570;2023-04-24T13:59:21;5.33;;;4.83;;
14778;SDS011;7481;53.750;10.570;2023-04-24T14:02:08;6.20;;;5.17;;
14778;SDS011;7481;53.750;10.570;2023-04-24T14:04:55;6.00;;;5.07;;
14778;SDS011;7481;53.750;10.570;2023-04-24T14:07:43;7.67;;;5.20;;
14778;SDS011;7481;53.750;10.570;2023-04-24T14:10:30;7.00;;;5.50;;
14778;SDS011;7481;53.750;10.570;2023-04-24T14:13:18;8.27;;;5.97;;
14778;SDS011;7481;53.750;10.570;2023-04-24T14:16:05;8.20;;;5.37;;
14778;SDS011;7481;53.750;10.570;2023-04-24T14:18:53;6.90;;;6.17;;
14778;SDS011;7481;53.750;10.570;2023-04-24T14:21:41;8.10;;;5.87;;
14778;SDS011;7481;53.750;10.570;2023-04-24T14:24:28;5.87;;;5.13;;
14778;SDS011;7481;53.750;10.570;2023-04-24T14:27:16;6.40;;;5.53;;
14778;SDS011;7481;53.750;10.570;2023-04-24T14:30:03;5.27;;;4.47;;
14778;SDS011;7481;53.750;10.570;2023-04-24T14:32:51;5.00;;;4.27;;
14778;SDS011;7481;53.750;10.570;2023-04-24T14:35:39;4.60;;;4.20;;
14778;SDS011;7481;53.750;10.570;2023-04-24T14:38:28;5.70;;;4.70;;
14778;SDS011;7481;53.750;10.570;2023-04-24T14:41:16;5.83;;;5.23;;
14778;SDS011;7481;53.750;10.570;2023-04-24T14:44:04;6.70;;;5.30;;
14778;SDS011;7481;53.750;10.570;2023-04-24T14:46:51;6.53;;;5.93;;
14778;SDS011;7481;53.750;10.570;2023-04-24T14:49:39;5.57;;;5.00;;
14778;SDS011;7481;53.750;10.570;2023-04-24T14:52:27;6.37;;;4.43;;
14778;SDS011;7481;53.750;10.570;2023-04-24T14:55:14;6.33;;;4.70;;
14778;SDS011;7481;53.750;10.570;2023-04-24T14:58:02;6.70;;;4.70;;
14778;SDS011;7481;53.750;10.570;2023-04-24T15:00:50;4.60;;;4.20;;
14778;SDS011;7481;53.750;10.570;2023-04-24T15:03:40;4.67;;;3.90;;
14778;SDS011;7481;53.750;10.570;2023-04-24T15:06:29;4.53;;;4.13;;
14778;SDS011;7481;53.750;10.570;2023-04-24T15:09:18;4.37;;;3.97;;
14778;SDS011;7481;53.750;10.570;2023-04-24T15:12:05;5.03;;;4.10;;
14778;SDS011;7481;53.750;10.570;2023-04-24T15:14:53;4.97;;;4.47;;
14778;SDS011;7481;53.750;10.570;2023-04-24T15:17:40;4.50;;;4.10;;
14778;SDS011;7481;53.750;10.570;2023-04-24T15:20:28;4.80;;;4.20;;
14778;SDS011;7481;53.750;10.570;2023-04-24T15:23:15;4.40;;;4.00;;
14778;SDS011;7481;53.750;10.570;2023-04-24T15:26:02;4.77;;;4.03;;
14778;SDS011;7481;53.750;10.570;2023-04-24T15:28:50;4.50;;;4.10;;
14778;SDS011;7481;53.750;10.570;2023-04-24T15:31:38;4.20;;;3.80;;
14778;SDS011;7481;53.750;10.570;2023-04-24T15:34:26;5.17;;;3.50;;
14778;SDS011;7481;53.750;10.570;2023-04-24T15:37:14;4.80;;;3.90;;
14778;SDS011;7481;53.750;10.570;2023-04-24T15:40:02;4.53;;;3.80;;
14778;SDS011;7481;53.750;10.570;2023-04-24T15:42:51;4.07;;;3.67;;
14778;SDS011;7481;53.750;10.570;2023-04-24T15:45:39;4.83;;;4.17;;
14778;SDS011;7481;53.750;10.570;2023-04-24T15:48:27;4.43;;;3.57;;
14778;SDS011;7481;53.750;10.570;2023-04-24T15:51:14;3.70;;;3.40;;
14778;SDS011;7481;53.750;10.570;2023-04-24T15:54:02;5.63;;;4.55;;
14778;SDS011;7481;53.750;10.570;2023-04-24T15:56:49;6.53;;;5.77;;
14778;SDS011;7481;53.750;10.570;2023-04-24T15:59:37;7.90;;;5.97;;
14778;SDS011;7481;53.750;10.570;2023-04-24T16:02:25;9.03;;;6.80;;
14778;SDS011;7481;53.750;10.570;2023-04-24T16:05:13;9.80;;;7.40;;
14778;SDS011;7481;53.750;10.570;2023-04-24T16:08:00;9.17;;;8.10;;
14778;SDS011;7481;53.750;10.570;2023-04-24T16:10:48;8.93;;;8.00;;
14778;SDS011;7481;53.750;10.570;2023-04-24T16:13:35;10.90;;;8.30;;
14778;SDS011;7481;53.750;10.570;2023-04-24T16:16:22;10.50;;;8.03;;
14778;SDS011;7481;53.750;10.570;2023-04-24T16:19:10;8.40;;;7.50;;
14778;SDS011;7481;53.750;10.570;2023-04-24T16:21:57;9.43;;;7.30;;
14778;SDS011;7481;53.750;10.570;2023-04-24T16:24:45;9.50;;;8.20;;
14778;SDS011;7481;53.750;10.570;2023-04-24T16:27:33;8.70;;;7.47;;
14778;SDS011;7481;53.750;10.570;2023-04-24T16:30:21;8.90;;;7.37;;
14778;SDS011;7481;53.750;10.570;2023-04-24T16:33:08;7.27;;;6.40;;
14778;SDS011;7481;53.750;10.570;2023-04-24T16:35:56;4.43;;;4.00;;
14778;SDS011;7481;53.750;10.570;2023-04-24T16:38:43;4.53;;;4.03;;
14778;SDS011;7481;53.750;10.570;2023-04-24T16:41:31;4.00;;;3.33;;
14778;SDS011;7481;53.750;10.570;2023-04-24T16:44:19;3.97;;;3.33;;
14778;SDS011;7481;53.750;10.570;2023-04-24T16:47:07;2.87;;;2.60;;
14778;SDS011;7481;53.750;10.570;2023-04-24T16:49:54;4.70;;;2.83;;
14778;SDS011;7481;53.750;10.570;2023-04-24T16:52:42;4.73;;;3.67;;
14778;SDS011;7481;53.750;10.570;2023-04-24T16:55:30;4.30;;;3.60;;
14778;SDS011;7481;53.750;10.570;2023-04-24T16:58:17;4.27;;;3.87;;
14778;SDS011;7481;53.750;10.570;2023-04-24T17:01:04;6.23;;;4.60;;